Etusivu
METAR-TAF:

METAR-TAF

Lentoasemat :

Luxeuil-les-Bains, Ranska

Leveyspiiri: 47-47N, Pituuspiiri: 006-21E, korkeus merenpinnasta: 278 m

Tämänhetkinen sää

Tämä raportti tehtiin 35 minuuttia sitten, kello 18.00 UTC
Tuuli 12 kn luoteesta, vaihdellen lännen/luoteen ja pohjoisen välillä
Lämpötila 7°C
Kosteus 87%
Ilmanpaine 1002 hPa
Näkyvyys 10 km tai enemmän
Pilvistä 1100 ft:n korkeudessa

METAR: LFSX 031800Z AUTO 31012KT 290V350 9999 OVC011 07/05 Q1002

Aika: 19:35 (18:35 UTC)


TAF: puuttuu

Säähavainnot ja -ennusteet yli 4000 lentoasemalta (METAR- ja TAF-raportit).

Käytössä olevat sääasemat on merkitty karttaan keltaisilla ja punaisilla pisteillä.

Aseta hiiri pisteen päälle nähdäksesi sääaseman nimen.

Klikkaa sitten nähdäksesi säähavainnot ja -ennusteet.

Kartan vaihtaminen: klikkaa mustalla rastilla varustettuja vihreitä pisteitä, niin voit zoomata sisään; viivalla varustettua vihreää pistettä, niin voit zoomata ulos tai vihreitä nuolia, niin pääset viereisille kartoille.


METAR-TAF: